Time;durP1;ratioP1;P1;durP2;ratioP2;P2;SDS_P1;SDS_P2;PMS_P1;PMS_P2;Temp;Humidity;BMP_temperature;BMP_pressure;BME280_temperature;BME280_humidity;BME280_pressure;Samples;Min_cycle;Max_cycle;Signal;HPM_P1;HPM_P2
2022/11/24 00:02:13;;;;;;;12.00;3.13;;;11.40;62.80;;;;;;5117929;27;20466;-85
2022/11/24 00:04:40;;;;;;;5.70;3.20;;;11.40;63.80;;;;;;5098318;27;20446;-87
2022/11/24 00:07:08;;;;;;;6.80;3.30;;;11.50;63.50;;;;;;5115767;27;20642;-86
2022/11/24 00:09:35;;;;;;;6.20;4.60;;;11.30;64.40;;;;;;5098168;27;20500;-87
2022/11/24 00:12:02;;;;;;;14.57;7.67;;;11.00;65.70;;;;;;5117961;27;21021;-86
2022/11/24 00:14:29;;;;;;;8.90;3.83;;;11.20;65.40;;;;;;5082101;27;20456;-89
2022/11/24 00:16:56;;;;;;;6.20;3.73;;;11.00;65.60;;;;;;5101226;27;20463;-87
2022/11/24 00:19:23;;;;;;;11.07;4.40;;;10.90;66.40;;;;;;5114046;27;20905;-90
2022/11/24 00:21:51;;;;;;;8.97;3.20;;;11.10;65.80;;;;;;5097799;27;20522;-87
2022/11/24 00:24:19;;;;;;;12.87;2.83;;;11.20;65.70;;;;;;5072810;27;20557;-86
2022/11/24 00:26:46;;;;;;;9.40;3.80;;;10.90;66.40;;;;;;5098283;27;20483;-86
2022/11/24 00:29:13;;;;;;;6.27;2.90;;;10.80;67.30;;;;;;5097665;27;20532;-89
2022/11/24 00:31:42;;;;;;;7.33;2.47;;;10.80;67.20;;;;;;5097723;27;20544;-86
2022/11/24 00:34:12;;;;;;;6.43;3.07;;;11.00;66.50;;;;;;5113682;27;20449;-86
2022/11/24 00:36:40;;;;;;;17.70;8.00;;;11.20;65.90;;;;;;5114226;27;20450;-86
2022/11/24 00:39:10;;;;;;;27.07;15.00;;;11.20;65.70;;;;;;5090063;27;20462;-86
2022/11/24 00:41:38;;;;;;;17.17;8.67;;;11.20;64.50;;;;;;5094623;27;20475;-89
2022/11/24 00:44:05;;;;;;;11.40;6.40;;;11.10;64.90;;;;;;5095591;27;20533;-86
2022/11/24 00:46:33;;;;;;;8.97;5.73;;;11.00;65.10;;;;;;5113038;27;20854;-88
2022/11/24 00:49:00;;;;;;;8.67;5.07;;;11.00;65.00;;;;;;5072675;27;20493;-88
2022/11/24 00:51:29;;;;;;;14.30;4.90;;;10.70;66.00;;;;;;5114222;27;20550;-85
2022/11/24 00:53:56;;;;;;;10.43;6.13;;;10.60;66.10;;;;;;5088432;27;20438;-89
2022/11/24 00:56:24;;;;;;;9.67;5.80;;;10.60;66.70;;;;;;5097955;27;21048;-85
2022/11/24 00:58:52;;;;;;;6.13;3.30;;;10.40;67.20;;;;;;5098426;27;20462;-86
2022/11/24 01:01:21;;;;;;;13.10;3.80;;;10.40;67.20;;;;;;5083535;27;20498;-86
2022/11/24 01:03:48;;;;;;;10.93;3.47;;;10.70;67.10;;;;;;5103026;27;20537;-87
2022/11/24 01:06:17;;;;;;;4.90;3.37;;;10.90;67.00;;;;;;5117714;27;20467;-87
2022/11/24 01:08:45;;;;;;;13.20;3.10;;;11.10;66.30;;;;;;5088993;27;20626;-86
2022/11/24 01:11:15;;;;;;;9.47;2.90;;;11.20;66.50;;;;;;5097208;27;20442;-87
2022/11/24 01:13:44;;;;;;;10.03;2.50;;;11.20;66.40;;;;;;5096346;27;20538;-86
2022/11/24 01:16:19;;;;;;;6.47;2.70;;;11.20;67.00;;;;;;5080332;27;20851;-85
2022/11/24 01:18:47;;;;;;;12.00;2.67;;;11.20;66.60;;;;;;5078793;27;20462;-85
2022/11/24 01:21:15;;;;;;;3.60;2.40;;;11.00;67.40;;;;;;5077655;27;21000;-88
2022/11/24 01:23:42;;;;;;;12.93;2.93;;;10.90;67.50;;;;;;5114631;27;20647;-89
2022/11/24 01:26:11;;;;;;;6.43;2.60;;;11.00;67.30;;;;;;5105000;27;20442;-85
2022/11/24 01:28:38;;;;;;;10.20;2.60;;;11.10;67.30;;;;;;5087170;27;20492;-86
2022/11/24 01:31:07;;;;;;;7.07;2.93;;;11.20;66.90;;;;;;5081463;27;21097;-85
2022/11/24 01:33:36;;;;;;;5.70;2.67;;;11.30;66.60;;;;;;5095093;27;20867;-90
2022/11/24 01:36:04;;;;;;;9.17;2.77;;;11.30;67.10;;;;;;5098918;27;20438;-86
2022/11/24 01:38:32;;;;;;;7.43;2.30;;;11.40;66.80;;;;;;5088198;28;20471;-85
2022/11/24 01:41:04;;;;;;;6.13;2.67;;;11.50;66.10;;;;;;5079863;27;21136;-85
2022/11/24 01:43:32;;;;;;;7.00;2.20;;;11.70;66.00;;;;;;5098311;27;20462;-86
2022/11/24 01:46:04;;;;;;;10.90;3.70;;;11.50;66.10;;;;;;5097313;27;20457;-86
2022/11/24 01:48:38;;;;;;;10.90;3.50;;;11.50;66.10;;;;;;5118575;27;21031;-86
2022/11/24 01:51:13;;;;;;;11.07;3.90;;;11.40;66.60;;;;;;5116089;27;20474;-87
2022/11/24 01:53:42;;;;;;;7.83;3.30;;;11.40;66.70;;;;;;5115036;27;20521;-87
2022/11/24 01:56:10;;;;;;;6.77;2.90;;;11.50;66.20;;;;;;5101169;27;20865;-85
2022/11/24 01:58:40;;;;;;;7.50;2.60;;;11.70;65.60;;;;;;5115076;27;21416;-86
2022/11/24 02:01:08;;;;;;;11.83;3.10;;;11.70;65.70;;;;;;5106733;27;20476;-88
2022/11/24 02:03:38;;;;;;;14.13;2.80;;;11.80;65.50;;;;;;5096718;27;20443;-85
2022/11/24 02:06:11;;;;;;;11.23;3.43;;;11.90;65.00;;;;;;5086937;27;20494;-86
2022/11/24 02:08:44;;;;;;;12.30;2.63;;;11.90;65.00;;;;;;5083346;27;20554;-88
2022/11/24 02:11:11;;;;;;;9.10;3.00;;;12.00;64.70;;;;;;5083838;27;20438;-87
2022/11/24 02:13:41;;;;;;;6.70;2.73;;;12.00;64.80;;;;;;5115704;27;20475;-86
2022/11/24 02:16:11;;;;;;;6.77;2.90;;;12.00;64.50;;;;;;5101173;27;21749;-87
2022/11/24 02:18:42;;;;;;;6.80;2.73;;;11.70;65.50;;;;;;5079521;27;20554;-86
2022/11/24 02:21:10;;;;;;;6.87;2.97;;;11.70;65.90;;;;;;5096277;27;20552;-87
2022/11/24 02:23:43;;;;;;;7.30;3.03;;;11.70;65.60;;;;;;5105488;27;20454;-85
2022/11/24 02:26:20;;;;;;;13.10;3.37;;;11.70;65.60;;;;;;5086134;27;20488;-87
2022/11/24 02:28:49;;;;;;;12.27;2.93;;;11.80;65.20;;;;;;5100230;27;20461;-86
2022/11/24 02:31:17;;;;;;;4.20;3.00;;;11.90;65.00;;;;;;5097595;28;20453;-86
2022/11/24 02:33:44;;;;;;;13.93;2.47;;;12.10;64.60;;;;;;5087925;27;20503;-85
2022/11/24 02:36:11;;;;;;;11.60;3.80;;;12.10;64.20;;;;;;5098244;27;20441;-85
2022/11/24 02:38:38;;;;;;;7.90;3.27;;;12.20;63.70;;;;;;5070693;27;20502;-85
2022/11/24 02:41:10;;;;;;;6.83;3.43;;;12.00;63.90;;;;;;5118512;27;20470;-87
2022/11/24 02:43:39;;;;;;;7.33;3.47;;;11.90;64.80;;;;;;5101986;27;20449;-85
2022/11/24 02:46:09;;;;;;;13.03;3.93;;;11.90;64.70;;;;;;5092608;27;20473;-85
2022/11/24 02:48:36;;;;;;;7.90;3.20;;;11.90;64.80;;;;;;5098012;27;20478;-86
2022/11/24 02:51:04;;;;;;;14.93;2.90;;;12.00;65.20;;;;;;5076031;27;20454;-86
2022/11/24 02:53:31;;;;;;;13.13;3.03;;;11.90;64.70;;;;;;5098677;27;20449;-86
2022/11/24 02:55:58;;;;;;;8.27;2.77;;;11.70;65.00;;;;;;5074332;27;20473;-86
2022/11/24 02:58:25;;;;;;;12.20;3.80;;;11.80;64.90;;;;;;5107246;28;20480;-90
2022/11/24 03:00:53;;;;;;;10.33;3.50;;;11.80;64.60;;;;;;5101902;27;20564;-85
2022/11/24 03:03:21;;;;;;;9.33;3.50;;;11.50;66.60;;;;;;5116046;27;20441;-88
2022/11/24 03:05:48;;;;;;;8.80;3.60;;;11.60;66.50;;;;;;5086527;27;20454;-86
2022/11/24 03:08:16;;;;;;;10.67;3.83;;;11.70;65.50;;;;;;5092252;27;20489;-86
2022/11/24 03:10:43;;;;;;;10.13;4.77;;;11.80;65.10;;;;;;5072372;27;20475;-89
2022/11/24 03:13:10;;;;;;;7.00;4.50;;;11.80;65.30;;;;;;5082192;27;20453;-86
2022/11/24 03:15:37;;;;;;;10.57;3.90;;;11.90;65.00;;;;;;5097217;27;20456;-89
2022/11/24 03:18:04;;;;;;;6.70;3.50;;;12.10;64.50;;;;;;5090864;27;20569;-87
2022/11/24 03:20:33;;;;;;;10.90;3.40;;;12.20;63.90;;;;;;5093749;27;20971;-85
2022/11/24 03:23:00;;;;;;;9.77;4.10;;;12.30;63.40;;;;;;5102194;27;20458;-87
2022/11/24 03:25:27;;;;;;;7.90;3.43;;;12.20;63.60;;;;;;5099629;28;20473;-87
2022/11/24 03:27:56;;;;;;;11.60;3.37;;;12.30;63.40;;;;;;5084562;27;21030;-88
2022/11/24 03:30:23;;;;;;;8.03;3.50;;;12.30;62.90;;;;;;5097372;27;20486;-87
2022/11/24 03:32:52;;;;;;;13.00;4.77;;;12.40;62.80;;;;;;5098059;27;20451;-88
2022/11/24 03:35:19;;;;;;;6.23;3.63;;;12.30;62.80;;;;;;5106271;27;20439;-86
2022/11/24 03:37:48;;;;;;;4.43;3.00;;;12.30;62.90;;;;;;5089941;27;20743;-87
2022/11/24 03:40:16;;;;;;;7.03;3.73;;;12.30;62.80;;;;;;5083310;27;20969;-86
2022/11/24 03:42:43;;;;;;;11.37;3.50;;;12.40;62.70;;;;;;5088794;27;21060;-86
2022/11/24 03:45:11;;;;;;;18.17;3.50;;;12.30;62.70;;;;;;5095886;27;21490;-86
2022/11/24 03:47:38;;;;;;;4.40;2.70;;;12.20;63.30;;;;;;5113246;27;20466;-86
2022/11/24 03:50:06;;;;;;;8.03;3.20;;;12.20;63.10;;;;;;5089983;27;21038;-86
2022/11/24 03:52:33;;;;;;;8.53;2.93;;;12.10;63.40;;;;;;5087758;27;20447;-87
2022/11/24 03:55:02;;;;;;;7.07;3.07;;;11.90;63.80;;;;;;5089388;27;20462;-86
2022/11/24 03:57:29;;;;;;;10.07;3.23;;;11.90;64.30;;;;;;5082158;28;20470;-86
2022/11/24 03:59:56;;;;;;;7.33;3.07;;;11.90;64.40;;;;;;5099794;27;20481;-87
2022/11/24 04:02:23;;;;;;;5.43;2.40;;;11.80;64.60;;;;;;5102279;27;20505;-84
2022/11/24 04:04:51;;;;;;;9.93;2.50;;;11.70;64.60;;;;;;5099797;27;20956;-86
2022/11/24 04:07:18;;;;;;;8.80;3.27;;;11.70;65.00;;;;;;5077054;27;20457;-86
2022/11/24 04:09:45;;;;;;;7.37;3.10;;;11.70;65.10;;;;;;5101434;27;20959;-89
2022/11/24 04:14:58;;;;;;;13.93;4.57;;;11.80;64.60;;;;;;5099152;27;20431;-89
2022/11/24 04:17:25;;;;;;;9.13;3.17;;;11.70;65.80;;;;;;5095737;28;20443;-84
2022/11/24 04:19:52;;;;;;;7.90;3.77;;;11.60;66.40;;;;;;5100923;27;20511;-86
2022/11/24 04:22:19;;;;;;;10.73;3.23;;;11.60;66.20;;;;;;5098454;27;20989;-86
2022/11/24 04:24:47;;;;;;;10.10;2.60;;;11.60;66.40;;;;;;5084311;27;21012;-88
2022/11/24 04:27:15;;;;;;;6.57;3.10;;;11.50;66.30;;;;;;5084006;27;20854;-86
2022/11/24 04:29:42;;;;;;;17.50;3.17;;;11.40;66.90;;;;;;5081450;27;20507;-84
2022/11/24 04:32:09;;;;;;;8.27;2.67;;;11.20;67.70;;;;;;5099928;27;20458;-88
2022/11/24 04:34:36;;;;;;;9.83;2.70;;;11.30;67.40;;;;;;5086188;27;20550;-86
2022/11/24 04:37:03;;;;;;;6.70;2.77;;;11.40;66.90;;;;;;5116485;27;20455;-89
2022/11/24 04:39:30;;;;;;;16.77;3.00;;;11.30;67.00;;;;;;5085685;27;20511;-84
2022/11/24 04:41:57;;;;;;;8.77;3.17;;;11.30;67.40;;;;;;5116137;27;20587;-85
2022/11/24 04:44:26;;;;;;;14.67;3.10;;;11.30;67.50;;;;;;5081592;27;20891;-86
2022/11/24 04:46:53;;;;;;;5.87;2.93;;;11.30;67.60;;;;;;5064103;27;21021;-89
2022/11/24 04:49:20;;;;;;;8.80;3.07;;;11.20;67.60;;;;;;5098094;27;20915;-86
2022/11/24 04:51:48;;;;;;;12.50;3.40;;;11.20;67.70;;;;;;5088375;27;20969;-87
2022/11/24 04:54:15;;;;;;;12.73;2.60;;;11.20;67.40;;;;;;5098763;28;20489;-85
2022/11/24 04:56:43;;;;;;;20.93;4.50;;;11.20;67.30;;;;;;5099613;27;20957;-87
2022/11/24 04:59:13;;;;;;;10.27;4.03;;;11.20;67.40;;;;;;5072068;27;21776;-85
2022/11/24 05:01:41;;;;;;;7.53;3.10;;;11.20;67.40;;;;;;5104291;27;20583;-87
2022/11/24 05:04:11;;;;;;;9.47;2.80;;;11.30;67.40;;;;;;5089672;27;20445;-85
2022/11/24 05:06:38;;;;;;;5.53;2.57;;;11.30;67.50;;;;;;5098373;27;20453;-87
2022/11/24 05:09:06;;;;;;;6.63;3.60;;;11.40;67.40;;;;;;5083926;27;20490;-87
2022/11/24 05:11:33;;;;;;;9.23;3.17;;;11.40;67.30;;;;;;5117447;27;20482;-88
2022/11/24 05:14:01;;;;;;;6.43;3.10;;;11.50;67.00;;;;;;5078809;27;20547;-87
2022/11/24 05:16:28;;;;;;;15.70;3.20;;;11.50;66.60;;;;;;5099316;27;20530;-86
2022/11/24 05:18:56;;;;;;;7.87;3.10;;;11.60;66.30;;;;;;5070364;27;20474;-88
2022/11/24 05:21:23;;;;;;;5.70;2.73;;;11.80;66.60;;;;;;5095292;27;20478;-88
2022/11/24 05:23:50;;;;;;;9.73;3.70;;;12.00;65.30;;;;;;5113287;27;20537;-86
2022/11/24 05:26:17;;;;;;;16.43;4.90;;;11.90;65.20;;;;;;5115759;27;20949;-87
2022/11/24 05:28:44;;;;;;;10.67;3.40;;;11.70;65.40;;;;;;5088898;27;20537;-86
2022/11/24 05:31:11;;;;;;;19.63;3.83;;;11.50;66.10;;;;;;5082307;27;21034;-85
2022/11/24 05:33:38;;;;;;;11.33;3.13;;;11.60;66.00;;;;;;5113690;27;20474;-86
2022/11/24 05:36:51;;;;;;;10.07;2.80;;;11.40;66.80;;;;;;5087964;27;20455;-86
2022/11/24 05:38:55;;;;;;;7.83;2.93;;;11.50;67.10;;;;;;5113903;27;20470;-86
2022/11/24 05:41:22;;;;;;;5.63;2.63;;;11.70;66.00;;;;;;5083263;28;20554;-86
2022/11/24 05:43:49;;;;;;;13.03;3.60;;;11.70;66.20;;;;;;5081850;27;20435;-86
2022/11/24 05:46:16;;;;;;;7.50;3.70;;;11.80;65.10;;;;;;5112333;27;20532;-86
2022/11/24 05:48:43;;;;;;;10.07;4.07;;;11.70;65.90;;;;;;5104338;27;20477;-87
2022/11/24 05:51:11;;;;;;;9.10;4.83;;;11.80;65.70;;;;;;5091279;27;20458;-89
2022/11/24 05:53:38;;;;;;;13.63;3.37;;;11.80;65.90;;;;;;5062812;27;20824;-88
2022/11/24 05:56:06;;;;;;;9.90;2.83;;;11.80;65.40;;;;;;5085325;27;20466;-88
2022/11/24 05:58:33;;;;;;;11.60;3.73;;;11.80;65.30;;;;;;5087026;27;20955;-89
2022/11/24 06:01:01;;;;;;;8.57;3.30;;;11.90;65.00;;;;;;5091970;27;20834;-86
2022/11/24 06:03:28;;;;;;;4.10;3.10;;;12.00;64.20;;;;;;5109041;27;21230;-86
2022/11/24 06:05:55;;;;;;;8.67;3.10;;;12.10;63.90;;;;;;5078391;27;20503;-86
2022/11/24 06:08:23;;;;;;;9.90;3.30;;;12.20;63.40;;;;;;5059406;28;21145;-86
2022/11/24 06:10:51;;;;;;;14.10;3.90;;;12.20;62.90;;;;;;5105678;27;20501;-88
2022/11/24 06:13:18;;;;;;;13.80;3.43;;;12.20;62.60;;;;;;5109697;27;20447;-86
2022/11/24 06:15:45;;;;;;;15.00;5.10;;;12.00;63.10;;;;;;5115206;27;20557;-86
2022/11/24 06:18:12;;;;;;;10.80;4.93;;;12.00;63.30;;;;;;5084288;27;20481;-88
2022/11/24 06:20:39;;;;;;;9.83;4.33;;;12.00;63.00;;;;;;5092532;27;20474;-88
2022/11/24 06:23:06;;;;;;;26.60;8.43;;;12.00;62.80;;;;;;5085981;27;20830;-87
2022/11/24 06:25:35;;;;;;;17.30;4.50;;;11.70;64.20;;;;;;5096065;27;20454;-86
2022/11/24 06:28:03;;;;;;;14.50;6.07;;;11.70;64.50;;;;;;5096421;27;20497;-85
2022/11/24 06:30:31;;;;;;;8.50;3.70;;;11.70;64.50;;;;;;5113304;27;20442;-89
2022/11/24 06:32:58;;;;;;;12.40;3.20;;;11.70;64.30;;;;;;5095482;27;20937;-87
2022/11/24 06:35:25;;;;;;;8.50;3.27;;;11.60;64.90;;;;;;5113900;27;20445;-88
2022/11/24 06:37:52;;;;;;;6.50;2.67;;;11.70;64.50;;;;;;5118167;27;20497;-87
2022/11/24 06:40:19;;;;;;;7.97;2.60;;;11.70;64.80;;;;;;5090972;27;20960;-88
2022/11/24 06:42:51;;;;;;;12.80;3.40;;;11.70;65.30;;;;;;5100610;27;20485;-88
2022/11/24 06:45:19;;;;;;;10.93;3.10;;;11.80;64.90;;;;;;5080114;27;20480;-86
2022/11/24 06:47:46;;;;;;;15.40;3.70;;;11.70;64.90;;;;;;5113463;27;20527;-89
2022/11/24 06:50:13;;;;;;;12.10;2.87;;;11.60;65.40;;;;;;5114687;27;20445;-86
2022/11/24 06:52:40;;;;;;;11.73;3.20;;;11.70;65.40;;;;;;5116293;27;20530;-88
2022/11/24 06:55:08;;;;;;;16.27;5.83;;;11.80;64.80;;;;;;5079650;27;20458;-87
2022/11/24 06:57:35;;;;;;;14.60;3.13;;;11.60;65.30;;;;;;5121494;27;20486;-87
2022/11/24 07:00:06;;;;;;;12.87;3.20;;;11.70;65.60;;;;;;5075913;27;20504;-89
2022/11/24 07:02:33;;;;;;;8.73;3.40;;;11.80;65.40;;;;;;5095084;27;20486;-87
2022/11/24 07:05:01;;;;;;;5.47;3.20;;;11.80;65.30;;;;;;5091150;27;20437;-87
2022/11/24 07:07:28;;;;;;;9.97;3.17;;;11.70;66.00;;;;;;5094366;27;20470;-88
2022/11/24 07:09:55;;;;;;;15.30;4.23;;;11.70;66.00;;;;;;5113167;27;20441;-88
2022/11/24 07:12:23;;;;;;;7.87;2.93;;;11.70;66.20;;;;;;5113274;27;21025;-87
2022/11/24 07:14:50;;;;;;;9.20;3.47;;;11.90;65.90;;;;;;5093934;27;20454;-87
2022/11/24 07:17:18;;;;;;;20.63;11.00;;;11.90;65.80;;;;;;5086689;27;20950;-91
2022/11/24 07:19:45;;;;;;;17.90;4.77;;;11.90;65.70;;;;;;5085779;27;20442;-89
2022/11/24 07:22:12;;;;;;;14.37;3.17;;;11.80;66.30;;;;;;5079246;27;21000;-88
2022/11/24 07:24:40;;;;;;;9.33;3.90;;;11.80;66.40;;;;;;5097783;27;20478;-87
2022/11/24 07:27:07;;;;;;;5.60;2.50;;;11.90;66.60;;;;;;5082965;27;20455;-88
2022/11/24 07:29:34;;;;;;;9.93;3.10;;;12.10;65.80;;;;;;5084544;27;20478;-90
2022/11/24 07:32:01;;;;;;;8.53;2.97;;;12.30;65.30;;;;;;5077789;27;20450;-90
2022/11/24 07:34:30;;;;;;;12.90;3.77;;;12.50;65.30;;;;;;5066768;28;20541;-88
2022/11/24 07:36:57;;;;;;;11.80;5.77;;;12.50;65.30;;;;;;5059379;27;20541;-87
2022/11/24 07:39:24;;;;;;;13.57;4.40;;;12.60;65.00;;;;;;5073970;27;20532;-86
2022/11/24 07:41:51;;;;;;;12.03;4.00;;;12.60;65.00;;;;;;5074939;27;20455;-89
2022/11/24 07:44:18;;;;;;;10.93;6.20;;;12.70;65.10;;;;;;5075768;27;20554;-87
2022/11/24 07:46:46;;;;;;;11.73;5.20;;;12.60;65.20;;;;;;5109135;27;20889;-88
2022/11/24 07:49:13;;;;;;;9.17;4.30;;;12.40;65.40;;;;;;5093876;27;20462;-87
2022/11/24 07:51:42;;;;;;;10.13;4.30;;;12.50;65.60;;;;;;5115260;27;20457;-87
2022/11/24 07:54:09;;;;;;;22.17;14.30;;;12.40;65.80;;;;;;5084629;27;20446;-90
2022/11/24 07:56:36;;;;;;;10.00;3.63;;;12.50;65.20;;;;;;5087884;27;20453;-87
2022/11/24 07:59:03;;;;;;;8.63;4.60;;;11.90;67.00;;;;;;5113705;27;20501;-86
2022/11/24 08:01:30;;;;;;;12.20;5.60;;;11.90;67.80;;;;;;5094037;27;21033;-87
2022/11/24 08:03:58;;;;;;;11.70;5.07;;;12.10;67.70;;;;;;5092476;27;20494;-88
2022/11/24 08:06:25;;;;;;;9.03;3.57;;;12.30;67.00;;;;;;5115519;27;20439;-87
2022/11/24 08:08:53;;;;;;;24.77;8.03;;;12.10;67.30;;;;;;5115114;27;20554;-87
2022/11/24 08:11:21;;;;;;;23.33;11.37;;;12.10;67.80;;;;;;5097318;27;20822;-86
2022/11/24 08:13:48;;;;;;;17.33;9.40;;;11.80;68.40;;;;;;5117417;27;20462;-88
2022/11/24 08:16:17;;;;;;;17.50;6.97;;;12.00;68.30;;;;;;5088970;27;20956;-87
2022/11/24 08:18:49;;;;;;;16.50;6.37;;;12.20;67.30;;;;;;5117155;27;20498;-86
2022/11/24 08:21:16;;;;;;;17.70;5.13;;;12.10;68.00;;;;;;5095293;27;20597;-86
2022/11/24 08:23:43;;;;;;;23.40;3.57;;;12.20;67.50;;;;;;5081198;27;20470;-86
2022/11/24 08:26:16;;;;;;;16.10;3.50;;;12.10;68.30;;;;;;5115183;27;20977;-89
2022/11/24 08:28:43;;;;;;;14.20;3.43;;;12.20;68.20;;;;;;5115400;27;20474;-87
2022/11/24 08:31:12;;;;;;;13.10;3.20;;;12.40;67.60;;;;;;5116574;27;20534;-86
2022/11/24 08:33:40;;;;;;;15.53;3.90;;;12.40;68.20;;;;;;5113144;27;20443;-86
2022/11/24 08:36:09;;;;;;;13.90;3.27;;;12.50;67.40;;;;;;5098014;27;21032;-88
2022/11/24 08:38:36;;;;;;;15.80;3.80;;;12.30;67.90;;;;;;5093702;27;20571;-85
2022/11/24 08:41:05;;;;;;;7.83;3.60;;;12.40;69.00;;;;;;5096791;27;20465;-87
2022/11/24 08:43:34;;;;;;;13.77;3.40;;;12.40;67.90;;;;;;5115262;27;20475;-87
2022/11/24 08:46:02;;;;;;;16.30;3.63;;;12.10;68.70;;;;;;5113196;27;20470;-86
2022/11/24 08:48:29;;;;;;;10.70;3.13;;;12.30;68.70;;;;;;5117630;27;20461;-85
2022/11/24 08:50:57;;;;;;;15.40;3.30;;;12.30;68.90;;;;;;5116275;27;20448;-85
2022/11/24 08:53:24;;;;;;;13.77;3.03;;;12.40;68.20;;;;;;5102052;27;20561;-87
2022/11/24 08:55:51;;;;;;;11.17;3.30;;;12.40;68.80;;;;;;5094138;27;20822;-86
2022/11/24 08:58:18;;;;;;;8.90;3.47;;;12.40;68.30;;;;;;5096858;27;20496;-87
2022/11/24 09:00:47;;;;;;;11.63;3.30;;;12.20;68.80;;;;;;5116202;27;20446;-87
2022/11/24 09:03:14;;;;;;;16.47;3.20;;;12.20;69.10;;;;;;5115961;27;20501;-85
2022/11/24 09:05:41;;;;;;;7.33;3.60;;;12.40;68.50;;;;;;5111275;27;20478;-86
2022/11/24 09:08:08;;;;;;;15.40;3.50;;;12.40;68.30;;;;;;5105808;27;20521;-87
2022/11/24 09:10:36;;;;;;;6.03;3.90;;;12.50;68.10;;;;;;5114314;27;20530;-86
2022/11/24 09:13:04;;;;;;;6.07;2.87;;;12.50;68.00;;;;;;5114810;27;20438;-87
2022/11/24 09:15:31;;;;;;;8.17;2.90;;;12.60;67.80;;;;;;5099617;27;20461;-88
2022/11/24 09:17:59;;;;;;;5.93;2.83;;;12.80;67.40;;;;;;5112940;27;20463;-87
2022/11/24 09:20:26;;;;;;;5.73;2.57;;;12.80;67.10;;;;;;5094192;27;20442;-86
2022/11/24 09:22:54;;;;;;;10.07;3.23;;;12.70;67.70;;;;;;5087151;27;20502;-86
2022/11/24 09:25:22;;;;;;;8.67;3.20;;;12.70;67.70;;;;;;5100662;27;20533;-87
2022/11/24 09:27:49;;;;;;;59.37;27.50;;;12.80;67.30;;;;;;5113540;27;20874;-85
2022/11/24 09:30:17;;;;;;;11.93;9.53;;;12.70;67.80;;;;;;5113120;27;20482;-87
2022/11/24 09:32:44;;;;;;;17.47;7.00;;;12.70;67.00;;;;;;5111282;27;20562;-88
2022/11/24 09:35:12;;;;;;;12.83;5.23;;;12.60;67.60;;;;;;5115650;27;20439;-86
2022/11/24 09:37:40;;;;;;;6.90;3.00;;;12.60;67.80;;;;;;5080970;27;20515;-85
2022/11/24 09:40:10;;;;;;;6.60;2.83;;;12.60;67.10;;;;;;5077321;27;20483;-85
2022/11/24 09:42:44;;;;;;;7.37;2.37;;;12.60;67.30;;;;;;5095104;27;20529;-88
2022/11/24 09:45:21;;;;;;;12.80;2.97;;;12.40;68.10;;;;;;5100424;27;20947;-87
2022/11/24 09:47:58;;;;;;;6.20;3.33;;;12.20;69.30;;;;;;5115851;27;20565;-87
2022/11/24 09:50:31;;;;;;;5.23;2.33;;;12.20;69.20;;;;;;5098606;28;20437;-88
2022/11/24 09:53:03;;;;;;;9.30;3.43;;;12.20;68.40;;;;;;5081109;27;20445;-87
2022/11/24 09:55:38;;;;;;;7.17;3.80;;;12.30;68.60;;;;;;5092941;28;20447;-86
2022/11/24 09:58:24;;;;;;;7.47;3.10;;;12.40;68.70;;;;;;5113919;27;21008;-86
2022/11/24 10:00:53;;;;;;;5.27;2.47;;;12.50;67.80;;;;;;5109703;27;20953;-89
2022/11/24 10:03:25;;;;;;;3.80;3.50;;;12.50;67.60;;;;;;5110444;27;20482;-86
2022/11/24 10:05:54;;;;;;;13.57;3.50;;;12.50;67.50;;;;;;5110139;27;22069;-87
2022/11/24 10:08:36;;;;;;;5.03;2.33;;;12.60;67.30;;;;;;5111149;27;20474;-88
2022/11/24 10:11:09;;;;;;;5.10;2.00;;;12.60;66.80;;;;;;5109800;27;20502;-88
2022/11/24 10:13:59;;;;;;;2.13;1.93;;;12.40;67.50;;;;;;5074542;27;20624;-86
2022/11/24 10:16:41;;;;;;;9.60;3.10;;;12.30;67.70;;;;;;5100071;28;20453;-84
2022/11/24 10:19:14;;;;;;;8.17;2.97;;;12.30;68.10;;;;;;5108929;27;20469;-86
2022/11/24 10:21:56;;;;;;;6.70;3.10;;;12.60;68.10;;;;;;5110419;27;20437;-87
2022/11/24 10:24:38;;;;;;;3.70;2.60;;;12.80;67.10;;;;;;5110979;27;20569;-87
2022/11/24 10:27:15;;;;;;;7.53;2.23;;;12.80;66.50;;;;;;5112296;27;20541;-87
2022/11/24 10:29:43;;;;;;;9.70;3.67;;;12.70;65.80;;;;;;5112236;27;20511;-89
2022/11/24 10:32:17;;;;;;;4.27;2.60;;;12.60;65.90;;;;;;5110252;27;20540;-87
2022/11/24 10:34:45;;;;;;;5.57;2.40;;;12.70;66.10;;;;;;5096238;27;20438;-90
2022/11/24 10:37:19;;;;;;;11.67;2.60;;;12.70;65.10;;;;;;5094494;27;20435;-87
2022/11/24 10:39:54;;;;;;;14.23;2.90;;;12.60;65.00;;;;;;5113306;27;20491;-88
2022/11/24 10:42:26;;;;;;;9.33;6.30;;;12.70;64.90;;;;;;5113391;27;20437;-88
2022/11/24 10:45:00;;;;;;;17.07;3.77;;;12.80;64.30;;;;;;5092154;27;20485;-88
2022/11/24 10:47:29;;;;;;;4.63;3.03;;;12.90;64.20;;;;;;5113150;27;20523;-87
2022/11/24 10:50:00;;;;;;;8.70;2.10;;;12.80;64.60;;;;;;5114229;27;20450;-87
2022/11/24 10:52:34;;;;;;;5.20;2.60;;;13.00;64.10;;;;;;5095012;28;20447;-88
2022/11/24 10:55:03;;;;;;;4.70;3.23;;;13.20;64.10;;;;;;5112311;27;20535;-87
2022/11/24 10:57:32;;;;;;;4.33;3.60;;;13.30;64.10;;;;;;5111369;27;20559;-88
2022/11/24 11:00:00;;;;;;;3.63;2.00;;;13.30;63.20;;;;;;5114624;27;20480;-86
2022/11/24 11:02:34;;;;;;;7.10;2.97;;;13.30;63.80;;;;;;5098386;27;20521;-87
2022/11/24 11:05:27;;;;;;;6.33;2.70;;;13.40;63.30;;;;;;5097732;27;20560;-87
2022/11/24 11:08:20;;;;;;;13.20;3.67;;;13.40;62.60;;;;;;5117606;27;20461;-86
2022/11/24 11:10:49;;;;;;;3.17;2.27;;;13.60;62.60;;;;;;5118615;27;20457;-88
2022/11/24 11:13:24;;;;;;;2.00;1.53;;;13.50;62.60;;;;;;5106278;27;20521;-86
2022/11/24 11:15:52;;;;;;;7.37;2.17;;;13.60;62.60;;;;;;5117317;27;20441;-88
2022/11/24 11:18:20;;;;;;;3.37;2.47;;;13.60;61.60;;;;;;5102643;27;21044;-89
2022/11/24 11:20:53;;;;;;;5.83;1.80;;;13.60;61.60;;;;;;5118209;27;20537;-86
2022/11/24 11:23:27;;;;;;;9.30;2.50;;;13.60;61.20;;;;;;5098721;27;20469;-87
2022/11/24 11:26:19;;;;;;;8.83;2.30;;;13.50;60.30;;;;;;5108658;27;20485;-87
2022/11/24 11:29:02;;;;;;;6.40;1.90;;;13.40;61.60;;;;;;5116828;27;20520;-86
2022/11/24 11:31:31;;;;;;;7.50;3.20;;;13.40;61.90;;;;;;5117099;27;20820;-88
2022/11/24 11:34:01;;;;;;;6.83;2.50;;;13.60;61.30;;;;;;5099322;27;20529;-87
2022/11/24 11:36:29;;;;;;;5.87;3.00;;;13.70;60.60;;;;;;5120951;27;20479;-87
2022/11/24 11:38:58;;;;;;;9.63;4.13;;;13.60;60.40;;;;;;5096576;27;20469;-88
2022/11/24 11:41:30;;;;;;;4.40;3.20;;;13.70;60.10;;;;;;5119048;27;20475;-87
2022/11/24 11:44:11;;;;;;;14.00;2.87;;;14.10;60.10;;;;;;5115860;27;20465;-88
2022/11/24 11:46:38;;;;;;;6.40;2.33;;;13.80;58.30;;;;;;5113262;27;21012;-89
2022/11/24 11:49:06;;;;;;;4.70;2.13;;;13.80;59.20;;;;;;5116320;27;20467;-87
2022/11/24 11:51:45;;;;;;;10.43;3.10;;;13.90;59.20;;;;;;5117693;27;20450;-87
2022/11/24 11:54:25;;;;;;;6.27;2.37;;;13.80;58.50;;;;;;5114373;27;20996;-88
2022/11/24 11:57:02;;;;;;;4.13;3.33;;;14.00;59.40;;;;;;5113897;27;22533;-87
2022/11/24 11:59:48;;;;;;;10.40;4.30;;;14.00;59.90;;;;;;5116469;27;20573;-88
2022/11/24 12:02:46;;;;;;;7.73;4.33;;;14.10;60.10;;;;;;5113409;27;20450;-89
2022/11/24 12:05:24;;;;;;;7.10;3.73;;;14.10;59.30;;;;;;5080452;27;20563;-87
2022/11/24 12:08:06;;;;;;;9.60;3.63;;;14.20;58.80;;;;;;5099192;27;20583;-88
2022/11/24 12:10:41;;;;;;;9.67;4.07;;;14.30;59.00;;;;;;5116916;27;20549;-87
2022/11/24 12:13:38;;;;;;;16.33;5.83;;;14.10;58.50;;;;;;5114140;27;20564;-87
2022/11/24 12:16:14;;;;;;;6.33;3.00;;;14.10;58.80;;;;;;5097449;27;20454;-85
2022/11/24 12:18:48;;;;;;;11.47;4.33;;;14.10;58.80;;;;;;5106555;27;20494;-87
2022/11/24 12:21:18;;;;;;;10.97;2.27;;;13.80;58.40;;;;;;5098373;27;20431;-88
2022/11/24 12:24:04;;;;;;;10.30;5.40;;;13.40;58.40;;;;;;5114768;27;20467;-88
2022/11/24 12:26:43;;;;;;;7.43;2.87;;;13.60;59.30;;;;;;5115052;27;20435;-87
2022/11/24 12:29:36;;;;;;;8.87;3.00;;;13.50;58.20;;;;;;5105353;27;20980;-87
2022/11/24 12:32:17;;;;;;;9.40;4.43;;;13.40;58.20;;;;;;5118173;27;20438;-88
2022/11/24 12:34:52;;;;;;;13.30;7.37;;;13.60;58.80;;;;;;5114025;27;21137;-87
2022/11/24 12:37:43;;;;;;;11.30;6.10;;;13.80;58.60;;;;;;5116339;27;20537;-87
2022/11/24 12:40:15;;;;;;;12.70;3.60;;;13.70;58.50;;;;;;5113767;27;20446;-88
2022/11/24 12:42:49;;;;;;;9.80;7.77;;;13.90;59.70;;;;;;5113695;27;20439;-87
2022/11/24 12:45:19;;;;;;;26.53;11.00;;;13.90;57.90;;;;;;5088714;27;20534;-91
2022/11/24 12:48:13;;;;;;;16.60;9.67;;;14.10;58.20;;;;;;5094277;27;20478;-86
2022/11/24 12:50:41;;;;;;;12.63;7.07;;;14.10;57.80;;;;;;5113985;27;20552;-88
2022/11/24 12:53:14;;;;;;;20.60;11.10;;;14.20;57.50;;;;;;5118337;27;20540;-86
2022/11/24 12:55:43;;;;;;;15.47;10.40;;;14.00;57.40;;;;;;5081432;27;20454;-88
2022/11/24 12:58:18;;;;;;;11.60;6.80;;;14.10;57.10;;;;;;5099181;27;20464;-87
2022/11/24 13:01:00;;;;;;;3.73;2.87;;;14.00;58.10;;;;;;5080475;27;20953;-90